sensor_id;sensor_type;location;lat;lon;timestamp;pressure;altitude;pressure_sealevel;temperature;humidity
58927;BME280;44712;52.530;9.760;2023-08-08T00:00:04;100596.09;;;11.86;100.00
58927;BME280;44712;52.530;9.760;2023-08-08T00:02:31;100591.59;;;11.85;100.00
58927;BME280;44712;52.530;9.760;2023-08-08T00:04:58;100592.53;;;11.84;100.00
58927;BME280;44712;52.530;9.760;2023-08-08T00:07:24;100594.38;;;11.82;100.00
58927;BME280;44712;52.530;9.760;2023-08-08T00:09:51;100592.66;;;11.78;100.00
58927;BME280;44712;52.530;9.760;2023-08-08T00:12:19;100590.88;;;11.77;100.00
58927;BME280;44712;52.530;9.760;2023-08-08T00:14:46;100580.06;;;11.75;100.00
58927;BME280;44712;52.530;9.760;2023-08-08T00:17:13;100584.59;;;11.73;100.00
58927;BME280;44712;52.530;9.760;2023-08-08T00:19:40;100574.72;;;11.72;100.00
58927;BME280;44712;52.530;9.760;2023-08-08T00:22:07;100589.97;;;11.76;100.00
58927;BME280;44712;52.530;9.760;2023-08-08T00:24:34;100589.06;;;11.76;100.00
58927;BME280;44712;52.530;9.760;2023-08-08T00:27:00;100580.03;;;11.77;100.00
58927;BME280;44712;52.530;9.760;2023-08-08T00:29:27;100576.41;;;11.78;100.00
58927;BME280;44712;52.530;9.760;2023-08-08T00:31:55;100576.47;;;11.75;100.00
58927;BME280;44712;52.530;9.760;2023-08-08T00:34:22;100578.19;;;11.79;100.00
58927;BME280;44712;52.530;9.760;2023-08-08T00:36:49;100568.09;;;11.85;100.00
58927;BME280;44712;52.530;9.760;2023-08-08T00:39:16;100567.25;;;11.82;100.00
58927;BME280;44712;52.530;9.760;2023-08-08T00:41:43;100565.44;;;11.84;100.00
58927;BME280;44712;52.530;9.760;2023-08-08T00:44:10;100560.94;;;11.83;100.00
58927;BME280;44712;52.530;9.760;2023-08-08T00:46:37;100556.41;;;11.82;100.00
58927;BME280;44712;52.530;9.760;2023-08-08T00:49:04;100556.34;;;11.85;100.00
58927;BME280;44712;52.530;9.760;2023-08-08T00:51:31;100549.13;;;11.85;100.00
58927;BME280;44712;52.530;9.760;2023-08-08T00:53:58;100558.22;;;11.83;100.00
58927;BME280;44712;52.530;9.760;2023-08-08T00:56:25;100551.06;;;11.79;100.00
58927;BME280;44712;52.530;9.760;2023-08-08T00:58:56;100550.16;;;11.78;100.00
58927;BME280;44712;52.530;9.760;2023-08-08T01:01:22;100546.63;;;11.75;100.00
58927;BME280;44712;52.530;9.760;2023-08-08T01:03:49;100550.28;;;11.73;100.00
58927;BME280;44712;52.530;9.760;2023-08-08T01:06:33;100548.41;;;11.76;100.00
58927;BME280;44712;52.530;9.760;2023-08-08T01:09:10;100543.84;;;11.78;100.00
58927;BME280;44712;52.530;9.760;2023-08-08T01:11:40;100552.00;;;11.78;100.00
58927;BME280;44712;52.530;9.760;2023-08-08T01:14:08;100550.13;;;11.81;100.00
58927;BME280;44712;52.530;9.760;2023-08-08T01:16:38;100552.84;;;11.80;100.00
58927;BME280;44712;52.530;9.760;2023-08-08T01:19:06;100546.59;;;11.76;100.00
58927;BME280;44712;52.530;9.760;2023-08-08T01:21:36;100546.56;;;11.78;100.00
58927;BME280;44712;52.530;9.760;2023-08-08T01:24:19;100534.00;;;11.73;100.00
58927;BME280;44712;52.530;9.760;2023-08-08T01:26:46;100534.81;;;11.79;100.00
58927;BME280;44712;52.530;9.760;2023-08-08T01:29:13;100525.78;;;11.77;100.00
58927;BME280;44712;52.530;9.760;2023-08-08T01:31:40;100514.13;;;11.73;100.00
58927;BME280;44712;52.530;9.760;2023-08-08T01:34:07;100516.78;;;11.76;100.00
58927;BME280;44712;52.530;9.760;2023-08-08T01:36:39;100518.56;;;11.76;100.00
58927;BME280;44712;52.530;9.760;2023-08-08T01:39:13;100509.69;;;11.70;100.00
58927;BME280;44712;52.530;9.760;2023-08-08T01:41:41;100509.69;;;11.70;100.00
58927;BME280;44712;52.530;9.760;2023-08-08T01:44:10;100512.34;;;11.72;100.00
58927;BME280;44712;52.530;9.760;2023-08-08T01:46:38;100499.72;;;11.71;100.00
58927;BME280;44712;52.530;9.760;2023-08-08T01:49:05;100513.31;;;11.69;100.00
58927;BME280;44712;52.530;9.760;2023-08-08T01:51:31;100515.09;;;11.70;100.00
58927;BME280;44712;52.530;9.760;2023-08-08T01:53:58;100516.84;;;11.71;100.00
58927;BME280;44712;52.530;9.760;2023-08-08T01:56:25;100515.09;;;11.70;100.00
58927;BME280;44712;52.530;9.760;2023-08-08T01:58:51;100515.16;;;11.67;100.00
58927;BME280;44712;52.530;9.760;2023-08-08T02:01:18;100508.88;;;11.65;100.00
58927;BME280;44712;52.530;9.760;2023-08-08T02:03:45;100513.41;;;11.63;100.00
58927;BME280;44712;52.530;9.760;2023-08-08T02:06:12;100508.00;;;11.63;100.00
58927;BME280;44712;52.530;9.760;2023-08-08T02:08:39;100502.59;;;11.63;100.00
58927;BME280;44712;52.530;9.760;2023-08-08T02:11:06;100497.09;;;11.66;100.00
58927;BME280;44712;52.530;9.760;2023-08-08T02:13:32;100490.84;;;11.63;100.00
58927;BME280;44712;52.530;9.760;2023-08-08T02:15:59;100480.81;;;11.66;100.00
58927;BME280;44712;52.530;9.760;2023-08-08T02:18:26;100488.91;;;11.69;100.00
58927;BME280;44712;52.530;9.760;2023-08-08T02:20:52;100494.38;;;11.68;100.00
58927;BME280;44712;52.530;9.760;2023-08-08T02:23:20;100488.94;;;11.68;100.00
58927;BME280;44712;52.530;9.760;2023-08-08T02:25:46;100486.13;;;11.72;100.00
58927;BME280;44712;52.530;9.760;2023-08-08T02:28:13;100493.34;;;11.73;100.00
58927;BME280;44712;52.530;9.760;2023-08-08T02:30:41;100495.16;;;11.71;100.00
58927;BME280;44712;52.530;9.760;2023-08-08T02:33:09;100501.50;;;11.72;100.00
58927;BME280;44712;52.530;9.760;2023-08-08T02:35:37;100495.16;;;11.71;100.00
58927;BME280;44712;52.530;9.760;2023-08-08T02:38:04;100489.75;;;11.71;100.00
58927;BME280;44712;52.530;9.760;2023-08-08T02:40:30;100493.34;;;11.73;100.00
58927;BME280;44712;52.530;9.760;2023-08-08T02:42:57;100499.59;;;11.76;100.00
58927;BME280;44712;52.530;9.760;2023-08-08T02:45:25;100498.59;;;11.80;100.00
58927;BME280;44712;52.530;9.760;2023-08-08T02:47:52;100488.66;;;11.80;100.00
58927;BME280;44712;52.530;9.760;2023-08-08T02:50:19;100482.34;;;11.80;100.00
58927;BME280;44712;52.530;9.760;2023-08-08T02:52:46;100485.91;;;11.82;100.00
58927;BME280;44712;52.530;9.760;2023-08-08T02:55:13;100483.13;;;11.85;100.00
58927;BME280;44712;52.530;9.760;2023-08-08T02:57:42;100482.22;;;11.86;100.00
58927;BME280;44712;52.530;9.760;2023-08-08T03:00:09;100482.19;;;11.87;100.00
58927;BME280;44712;52.530;9.760;2023-08-08T03:02:41;100478.59;;;11.87;100.00
58927;BME280;44712;52.530;9.760;2023-08-08T03:05:08;100484.84;;;11.89;100.00
58927;BME280;44712;52.530;9.760;2023-08-08T03:07:35;100475.75;;;11.92;100.00
58927;BME280;44712;52.530;9.760;2023-08-08T03:10:02;100481.13;;;11.93;100.00
58927;BME280;44712;52.530;9.760;2023-08-08T03:12:31;100471.13;;;11.98;100.00
58927;BME280;44712;52.530;9.760;2023-08-08T03:14:58;100477.44;;;11.99;100.00
58927;BME280;44712;52.530;9.760;2023-08-08T03:17:26;100469.34;;;11.97;100.00
58927;BME280;44712;52.530;9.760;2023-08-08T03:19:55;100462.06;;;11.99;100.00
58927;BME280;44712;52.530;9.760;2023-08-08T03:22:23;100461.97;;;12.02;100.00
58927;BME280;44712;52.530;9.760;2023-08-08T03:24:50;100469.16;;;12.07;100.00
58927;BME280;44712;52.530;9.760;2023-08-08T03:27:17;100467.28;;;12.09;100.00
58927;BME280;44712;52.530;9.760;2023-08-08T03:29:47;100465.44;;;12.11;100.00
58927;BME280;44712;52.530;9.760;2023-08-08T03:32:15;100464.38;;;12.16;100.00
58927;BME280;44712;52.530;9.760;2023-08-08T03:34:42;100476.06;;;12.20;100.00
58927;BME280;44712;52.530;9.760;2023-08-08T03:37:11;100468.75;;;12.22;100.00
58927;BME280;44712;52.530;9.760;2023-08-08T03:39:38;100468.69;;;12.25;100.00
58927;BME280;44712;52.530;9.760;2023-08-08T03:42:05;100460.53;;;12.25;100.00
58927;BME280;44712;52.530;9.760;2023-08-08T03:44:31;100461.41;;;12.27;100.00
58927;BME280;44712;52.530;9.760;2023-08-08T03:46:58;100460.47;;;12.28;100.00
58927;BME280;44712;52.530;9.760;2023-08-08T03:49:44;100456.81;;;12.29;100.00
58927;BME280;44712;52.530;9.760;2023-08-08T03:52:11;100450.31;;;12.36;100.00
58927;BME280;44712;52.530;9.760;2023-08-08T03:54:39;100450.31;;;12.36;100.00
58927;BME280;44712;52.530;9.760;2023-08-08T03:57:06;100438.41;;;12.42;100.00
58927;BME280;44712;52.530;9.760;2023-08-08T03:59:33;100446.50;;;12.44;100.00
58927;BME280;44712;52.530;9.760;2023-08-08T04:02:00;100437.44;;;12.45;100.00
58927;BME280;44712;52.530;9.760;2023-08-08T04:04:27;100436.53;;;12.46;100.00
58927;BME280;44712;52.530;9.760;2023-08-08T04:06:54;100442.72;;;12.51;100.00
58927;BME280;44712;52.530;9.760;2023-08-08T04:09:21;100445.44;;;12.51;100.00
58927;BME280;44712;52.530;9.760;2023-08-08T04:11:48;100445.44;;;12.51;100.00
58927;BME280;44712;52.530;9.760;2023-08-08T04:14:16;100437.22;;;12.54;100.00
58927;BME280;44712;52.530;9.760;2023-08-08T04:16:42;100438.09;;;12.54;100.00
58927;BME280;44712;52.530;9.760;2023-08-08T04:19:09;100439.84;;;12.57;100.00
58927;BME280;44712;52.530;9.760;2023-08-08T04:21:37;100438.81;;;12.61;100.00
58927;BME280;44712;52.530;9.760;2023-08-08T04:24:04;100445.13;;;12.63;100.00
58927;BME280;44712;52.530;9.760;2023-08-08T04:26:31;100437.06;;;12.60;100.00
58927;BME280;44712;52.530;9.760;2023-08-08T04:28:58;100444.25;;;12.61;100.00
58927;BME280;44712;52.530;9.760;2023-08-08T04:31:25;100437.84;;;12.64;100.00
58927;BME280;44712;52.530;9.760;2023-08-08T04:33:52;100426.13;;;12.63;100.00
58927;BME280;44712;52.530;9.760;2023-08-08T04:36:27;100429.53;;;12.71;100.00
58927;BME280;44712;52.530;9.760;2023-08-08T04:38:54;100423.13;;;12.74;100.00
58927;BME280;44712;52.530;9.760;2023-08-08T04:41:21;100433.94;;;12.76;100.00
58927;BME280;44712;52.530;9.760;2023-08-08T04:43:48;100433.00;;;12.77;100.00
58927;BME280;44712;52.530;9.760;2023-08-08T04:46:14;100429.38;;;12.78;100.00
58927;BME280;44712;52.530;9.760;2023-08-08T04:48:41;100427.56;;;12.77;100.00
58927;BME280;44712;52.530;9.760;2023-08-08T04:51:08;100424.84;;;12.77;100.00
58927;BME280;44712;52.530;9.760;2023-08-08T04:53:35;100423.03;;;12.77;100.00
58927;BME280;44712;52.530;9.760;2023-08-08T04:56:02;100414.78;;;12.82;100.00
58927;BME280;44712;52.530;9.760;2023-08-08T04:58:29;100419.28;;;12.81;100.00
58927;BME280;44712;52.530;9.760;2023-08-08T05:00:56;100414.78;;;12.82;100.00
58927;BME280;44712;52.530;9.760;2023-08-08T05:03:22;100415.59;;;12.85;100.00
58927;BME280;44712;52.530;9.760;2023-08-08T05:05:49;100418.06;;;12.93;100.00
58927;BME280;44712;52.530;9.760;2023-08-08T05:08:16;100409.91;;;12.93;100.00
58927;BME280;44712;52.530;9.760;2023-08-08T05:10:43;100408.88;;;12.97;100.00
58927;BME280;44712;52.530;9.760;2023-08-08T05:13:10;100403.41;;;13.00;100.00
58927;BME280;44712;52.530;9.760;2023-08-08T05:15:37;100410.31;;;13.11;100.00
58927;BME280;44712;52.530;9.760;2023-08-08T05:18:04;100406.69;;;13.12;100.00
58927;BME280;44712;52.530;9.760;2023-08-08T05:20:31;100404.88;;;13.12;100.00
58927;BME280;44712;52.530;9.760;2023-08-08T05:22:58;100408.47;;;13.13;100.00
58927;BME280;44712;52.530;9.760;2023-08-08T05:25:24;100404.81;;;13.14;100.00
58927;BME280;44712;52.530;9.760;2023-08-08T05:27:51;100404.72;;;13.17;100.00
58927;BME280;44712;52.530;9.760;2023-08-08T05:30:19;100403.81;;;13.18;100.00
58927;BME280;44712;52.530;9.760;2023-08-08T05:32:46;100400.97;;;13.21;100.00
58927;BME280;44712;52.530;9.760;2023-08-08T05:35:13;100400.81;;;13.27;100.00
58927;BME280;44712;52.530;9.760;2023-08-08T05:37:40;100405.22;;;13.31;100.00
58927;BME280;44712;52.530;9.760;2023-08-08T05:40:07;100404.19;;;13.35;100.00
58927;BME280;44712;52.530;9.760;2023-08-08T05:42:34;100407.69;;;13.41;100.00
58927;BME280;44712;52.530;9.760;2023-08-08T05:45:01;100413.03;;;13.44;100.00
58927;BME280;44712;52.530;9.760;2023-08-08T05:47:27;100412.88;;;13.50;100.00
58927;BME280;44712;52.530;9.760;2023-08-08T05:49:54;100412.66;;;13.56;100.00
58927;BME280;44712;52.530;9.760;2023-08-08T05:52:21;100409.75;;;13.62;100.00
58927;BME280;44712;52.530;9.760;2023-08-08T05:54:48;100423.34;;;13.62;100.00
58927;BME280;44712;52.530;9.760;2023-08-08T05:57:15;100417.63;;;13.71;100.00
58927;BME280;44712;52.530;9.760;2023-08-08T05:59:42;100422.09;;;13.74;100.00
58927;BME280;44712;52.530;9.760;2023-08-08T06:02:11;100417.47;;;13.78;100.00
58927;BME280;44712;52.530;9.760;2023-08-08T06:04:37;100422.63;;;13.87;100.00
58927;BME280;44712;52.530;9.760;2023-08-08T06:07:04;100424.31;;;13.89;100.00
58927;BME280;44712;52.530;9.760;2023-08-08T06:09:34;100429.72;;;13.91;100.00
58927;BME280;44712;52.530;9.760;2023-08-08T06:12:03;100429.63;;;13.94;100.00
58927;BME280;44712;52.530;9.760;2023-08-08T06:14:30;100430.44;;;13.98;100.00
58927;BME280;44712;52.530;9.760;2023-08-08T06:16:57;100425.88;;;13.98;100.00
58927;BME280;44712;52.530;9.760;2023-08-08T06:19:23;100421.53;;;13.93;100.00
58927;BME280;44712;52.530;9.760;2023-08-08T06:21:51;100427.72;;;13.96;100.00
58927;BME280;44712;52.530;9.760;2023-08-08T06:24:18;100422.22;;;13.99;100.00
58927;BME280;44712;52.530;9.760;2023-08-08T06:26:45;100422.75;;;14.11;100.00
58927;BME280;44712;52.530;9.760;2023-08-08T06:29:11;100428.75;;;14.22;100.00
58927;BME280;44712;52.530;9.760;2023-08-08T06:31:40;100425.50;;;14.37;100.00
58927;BME280;44712;52.530;9.760;2023-08-08T06:34:08;100424.03;;;14.54;100.00
58927;BME280;44712;52.530;9.760;2023-08-08T06:36:34;100424.88;;;14.56;100.00
58927;BME280;44712;52.530;9.760;2023-08-08T06:39:01;100415.41;;;14.68;100.00
58927;BME280;44712;52.530;9.760;2023-08-08T06:41:28;100409.91;;;14.69;100.00
58927;BME280;44712;52.530;9.760;2023-08-08T06:43:54;100414.09;;;14.80;100.00
58927;BME280;44712;52.530;9.760;2023-08-08T06:46:21;100410.53;;;14.78;100.00
58927;BME280;44712;52.530;9.760;2023-08-08T06:48:49;100416.75;;;14.81;100.00
58927;BME280;44712;52.530;9.760;2023-08-08T06:51:18;100414.78;;;14.86;100.00
58927;BME280;44712;52.530;9.760;2023-08-08T06:53:45;100427.13;;;14.97;100.00
58927;BME280;44712;52.530;9.760;2023-08-08T06:56:11;100426.13;;;14.99;100.00
58927;BME280;44712;52.530;9.760;2023-08-08T06:58:38;100412.44;;;15.01;100.00
58927;BME280;44712;52.530;9.760;2023-08-08T07:01:05;100429.47;;;15.07;100.00
58927;BME280;44712;52.530;9.760;2023-08-08T07:03:31;100429.53;;;15.06;100.00
58927;BME280;44712;52.530;9.760;2023-08-08T07:05:58;100422.22;;;15.06;100.00
58927;BME280;44712;52.530;9.760;2023-08-08T07:08:26;100428.06;;;15.21;100.00
58927;BME280;44712;52.530;9.760;2023-08-08T07:10:53;100424.09;;;15.30;100.00
58927;BME280;44712;52.530;9.760;2023-08-08T07:13:22;100427.66;;;15.32;100.00
58927;BME280;44712;52.530;9.760;2023-08-08T07:15:49;100411.94;;;15.38;100.00
58927;BME280;44712;52.530;9.760;2023-08-08T07:18:16;100410.69;;;15.47;100.00
58927;BME280;44712;52.530;9.760;2023-08-08T07:20:43;100422.22;;;15.55;100.00
58927;BME280;44712;52.530;9.760;2023-08-08T07:23:10;100418.34;;;15.61;100.00
58927;BME280;44712;52.530;9.760;2023-08-08T07:25:37;100409.22;;;15.62;100.00
58927;BME280;44712;52.530;9.760;2023-08-08T07:28:04;100407.09;;;15.70;99.37
58927;BME280;44712;52.530;9.760;2023-08-08T07:30:30;100412.19;;;15.80;100.00
58927;BME280;44712;52.530;9.760;2023-08-08T07:32:57;100390.41;;;15.78;97.60
58927;BME280;44712;52.530;9.760;2023-08-08T07:35:24;100392.84;;;15.86;94.51
58927;BME280;44712;52.530;9.760;2023-08-08T07:37:50;100399.53;;;16.23;96.56
58927;BME280;44712;52.530;9.760;2023-08-08T07:40:18;100392.53;;;16.38;93.38
58927;BME280;44712;52.530;9.760;2023-08-08T07:42:47;100392.50;;;16.39;93.36
58927;BME280;44712;52.530;9.760;2023-08-08T07:45:14;100391.91;;;16.31;92.32
58927;BME280;44712;52.530;9.760;2023-08-08T07:47:41;100388.50;;;16.26;93.51
58927;BME280;44712;52.530;9.760;2023-08-08T07:50:08;100394.38;;;16.15;93.18
58927;BME280;44712;52.530;9.760;2023-08-08T07:52:36;100391.03;;;16.09;94.06
58927;BME280;44712;52.530;9.760;2023-08-08T07:55:03;100392.44;;;15.97;93.99
58927;BME280;44712;52.530;9.760;2023-08-08T07:57:32;100387.88;;;15.97;94.30
58927;BME280;44712;52.530;9.760;2023-08-08T08:00:03;100388.09;;;15.91;94.87
58927;BME280;44712;52.530;9.760;2023-08-08T08:02:42;100373.50;;;15.92;94.95
58927;BME280;44712;52.530;9.760;2023-08-08T08:05:10;100388.38;;;15.85;93.89
58927;BME280;44712;52.530;9.760;2023-08-08T08:07:37;100391.16;;;15.83;93.55
58927;BME280;44712;52.530;9.760;2023-08-08T08:10:06;100396.63;;;15.83;92.94
58927;BME280;44712;52.530;9.760;2023-08-08T08:12:35;100386.78;;;15.78;92.47
58927;BME280;44712;52.530;9.760;2023-08-08T08:15:02;100391.81;;;15.90;92.22
58927;BME280;44712;52.530;9.760;2023-08-08T08:17:30;100393.25;;;15.99;92.07
58927;BME280;44712;52.530;9.760;2023-08-08T08:19:57;100386.66;;;16.04;92.29
58927;BME280;44712;52.530;9.760;2023-08-08T08:22:24;100384.06;;;16.23;92.07
58927;BME280;44712;52.530;9.760;2023-08-08T08:24:51;100382.38;;;16.42;91.35
58927;BME280;44712;52.530;9.760;2023-08-08T08:27:18;100380.53;;;16.42;89.70
58927;BME280;44712;52.530;9.760;2023-08-08T08:29:44;100378.94;;;16.36;87.96
58927;BME280;44712;52.530;9.760;2023-08-08T08:32:11;100384.69;;;16.30;87.46
58927;BME280;44712;52.530;9.760;2023-08-08T08:34:39;100379.63;;;16.21;88.09
58927;BME280;44712;52.530;9.760;2023-08-08T08:37:07;100370.91;;;16.11;88.47
58927;BME280;44712;52.530;9.760;2023-08-08T08:39:34;100364.72;;;16.08;88.24
58927;BME280;44712;52.530;9.760;2023-08-08T08:42:02;100364.44;;;15.92;88.71
58927;BME280;44712;52.530;9.760;2023-08-08T08:44:31;100357.00;;;15.95;89.02
58927;BME280;44712;52.530;9.760;2023-08-08T08:47:07;100368.38;;;16.06;88.03
58927;BME280;44712;52.530;9.760;2023-08-08T08:49:41;100362.91;;;16.06;88.28
58927;BME280;44712;52.530;9.760;2023-08-08T08:52:09;100360.19;;;16.06;87.72
58927;BME280;44712;52.530;9.760;2023-08-08T08:54:36;100361.84;;;16.11;89.04
58927;BME280;44712;52.530;9.760;2023-08-08T08:57:03;100369.25;;;16.07;89.69
58927;BME280;44712;52.530;9.760;2023-08-08T08:59:30;100367.09;;;15.93;92.12
58927;BME280;44712;52.530;9.760;2023-08-08T09:01:57;100368.28;;;15.86;94.13
58927;BME280;44712;52.530;9.760;2023-08-08T09:04:24;100364.38;;;15.93;93.46
58927;BME280;44712;52.530;9.760;2023-08-08T09:06:51;100363.47;;;16.15;92.68
58927;BME280;44712;52.530;9.760;2023-08-08T09:09:19;100356.03;;;16.61;92.59
58927;BME280;44712;52.530;9.760;2023-08-08T09:11:52;100357.97;;;17.00;88.70
58927;BME280;44712;52.530;9.760;2023-08-08T09:14:24;100363.78;;;17.32;88.40
58927;BME280;44712;52.530;9.760;2023-08-08T09:16:51;100355.50;;;17.53;87.51
58927;BME280;44712;52.530;9.760;2023-08-08T09:19:23;100355.22;;;17.78;85.39
58927;BME280;44712;52.530;9.760;2023-08-08T09:21:51;100351.31;;;17.84;84.38
58927;BME280;44712;52.530;9.760;2023-08-08T09:24:19;100357.38;;;17.71;82.67
58927;BME280;44712;52.530;9.760;2023-08-08T09:26:46;100352.41;;;17.80;82.21
58927;BME280;44712;52.530;9.760;2023-08-08T09:29:14;100350.66;;;17.79;83.29
58927;BME280;44712;52.530;9.760;2023-08-08T09:31:46;100346.94;;;17.42;82.51
58927;BME280;44712;52.530;9.760;2023-08-08T09:34:13;100356.41;;;17.34;81.98
58927;BME280;44712;52.530;9.760;2023-08-08T09:36:40;100377.69;;;17.28;86.07
58927;BME280;44712;52.530;9.760;2023-08-08T09:39:07;100385.56;;;16.94;86.73
58927;BME280;44712;52.530;9.760;2023-08-08T09:41:34;100388.38;;;16.50;86.84
58927;BME280;44712;52.530;9.760;2023-08-08T09:44:01;100393.53;;;16.35;88.78
58927;BME280;44712;52.530;9.760;2023-08-08T09:46:29;100381.97;;;15.62;89.62
58927;BME280;44712;52.530;9.760;2023-08-08T09:48:57;100380.94;;;15.65;92.41
58927;BME280;44712;52.530;9.760;2023-08-08T09:51:25;100380.63;;;15.96;94.19
58927;BME280;44712;52.530;9.760;2023-08-08T09:53:52;100387.69;;;16.45;95.09
58927;BME280;44712;52.530;9.760;2023-08-08T09:56:19;100388.78;;;16.40;93.62
58927;BME280;44712;52.530;9.760;2023-08-08T09:58:47;100379.47;;;16.46;93.24
58927;BME280;44712;52.530;9.760;2023-08-08T10:01:14;100374.00;;;16.46;91.94
58927;BME280;44712;52.530;9.760;2023-08-08T10:03:41;100372.38;;;16.20;94.54
58927;BME280;44712;52.530;9.760;2023-08-08T10:06:13;100373.25;;;16.20;93.83
58927;BME280;44712;52.530;9.760;2023-08-08T10:08:44;100366.53;;;16.29;93.69
58927;BME280;44712;52.530;9.760;2023-08-08T10:11:12;100355.13;;;16.61;91.75
58927;BME280;44712;52.530;9.760;2023-08-08T10:13:47;100351.31;;;17.06;90.68
58927;BME280;44712;52.530;9.760;2023-08-08T10:16:16;100350.72;;;17.20;90.36
58927;BME280;44712;52.530;9.760;2023-08-08T10:18:45;100351.81;;;17.35;90.08
58927;BME280;44712;52.530;9.760;2023-08-08T10:21:12;100360.66;;;17.21;89.04
58927;BME280;44712;52.530;9.760;2023-08-08T10:23:40;100356.13;;;17.40;88.85
58927;BME280;44712;52.530;9.760;2023-08-08T10:26:18;100353.88;;;17.30;86.35
58927;BME280;44712;52.530;9.760;2023-08-08T10:28:54;100359.84;;;17.59;86.33
58927;BME280;44712;52.530;9.760;2023-08-08T10:31:25;100361.53;;;17.80;84.60
58927;BME280;44712;52.530;9.760;2023-08-08T10:34:03;100354.34;;;17.97;84.65
58927;BME280;44712;52.530;9.760;2023-08-08T10:36:47;100349.16;;;17.71;81.75
58927;BME280;44712;52.530;9.760;2023-08-08T10:39:15;100344.09;;;18.19;80.76
58927;BME280;44712;52.530;9.760;2023-08-08T10:41:49;100340.19;;;18.60;82.93
58927;BME280;44712;52.530;9.760;2023-08-08T10:44:24;100346.13;;;19.03;80.05
58927;BME280;44712;52.530;9.760;2023-08-08T10:46:52;100344.38;;;19.18;78.91
58927;BME280;44712;52.530;9.760;2023-08-08T10:49:19;100337.28;;;19.48;77.31
58927;BME280;44712;52.530;9.760;2023-08-08T10:51:48;100336.47;;;19.30;75.90
58927;BME280;44712;52.530;9.760;2023-08-08T10:54:20;100332.19;;;19.08;77.29
58927;BME280;44712;52.530;9.760;2023-08-08T11:00:16;100348.28;;;19.80;68.55
58927;BME280;44712;52.530;9.760;2023-08-08T11:02:44;100336.19;;;19.84;66.96
58927;BME280;44712;52.530;9.760;2023-08-08T11:05:14;100330.03;;;20.11;65.16
58927;BME280;44712;52.530;9.760;2023-08-08T11:07:41;100332.66;;;19.82;65.80
58927;BME280;44712;52.530;9.760;2023-08-08T11:10:09;100330.31;;;19.74;66.07
58927;BME280;44712;52.530;9.760;2023-08-08T11:12:36;100329.81;;;19.99;65.92
58927;BME280;44712;52.530;9.760;2023-08-08T11:15:03;100338.78;;;19.69;62.56
58927;BME280;44712;52.530;9.760;2023-08-08T11:17:32;100320.31;;;19.89;62.03
58927;BME280;44712;52.530;9.760;2023-08-08T11:19:59;100328.47;;;19.90;61.90
58927;BME280;44712;52.530;9.760;2023-08-08T11:22:28;100321.09;;;19.59;61.08
58927;BME280;44712;52.530;9.760;2023-08-08T11:24:54;100328.47;;;19.25;60.39
58927;BME280;44712;52.530;9.760;2023-08-08T11:27:24;100326.69;;;19.24;62.65
58927;BME280;44712;52.530;9.760;2023-08-08T11:29:56;100319.03;;;18.97;62.37
58927;BME280;44712;52.530;9.760;2023-08-08T11:32:27;100320.31;;;19.07;62.42
58927;BME280;44712;52.530;9.760;2023-08-08T11:34:55;100307.25;;;19.29;60.86
58927;BME280;44712;52.530;9.760;2023-08-08T11:37:23;100310.28;;;19.56;61.38
58927;BME280;44712;52.530;9.760;2023-08-08T11:39:53;100314.59;;;19.94;60.01
58927;BME280;44712;52.530;9.760;2023-08-08T11:42:19;100316.91;;;19.52;57.76
58927;BME280;44712;52.530;9.760;2023-08-08T11:44:47;100332.75;;;19.47;59.53
58927;BME280;44712;52.530;9.760;2023-08-08T11:47:15;100335.34;;;19.00;59.51
58927;BME280;44712;52.530;9.760;2023-08-08T11:50:31;100338.84;;;18.15;67.16
58927;BME280;44712;52.530;9.760;2023-08-08T11:52:59;100328.00;;;18.13;70.03
58927;BME280;44712;52.530;9.760;2023-08-08T11:55:29;100333.50;;;18.48;68.51
58927;BME280;44712;52.530;9.760;2023-08-08T11:57:57;100332.72;;;18.80;67.94
58927;BME280;44712;52.530;9.760;2023-08-08T12:00:28;100330.25;;;19.26;65.03
58927;BME280;44712;52.530;9.760;2023-08-08T12:02:57;100311.28;;;19.05;64.09
58927;BME280;44712;52.530;9.760;2023-08-08T12:05:26;100331.50;;;19.20;66.81
58927;BME280;44712;52.530;9.760;2023-08-08T12:07:54;100309.34;;;19.07;63.97
58927;BME280;44712;52.530;9.760;2023-08-08T12:10:22;100317.97;;;19.00;64.03
58927;BME280;44712;52.530;9.760;2023-08-08T12:12:54;100321.31;;;18.54;65.26
58927;BME280;44712;52.530;9.760;2023-08-08T12:15:23;100330.19;;;18.42;67.92
58927;BME280;44712;52.530;9.760;2023-08-08T12:17:51;100331.28;;;18.20;71.11
58927;BME280;44712;52.530;9.760;2023-08-08T12:20:18;100328.97;;;18.30;71.46
58927;BME280;44712;52.530;9.760;2023-08-08T12:22:45;100319.22;;;18.42;72.15
58927;BME280;44712;52.530;9.760;2023-08-08T12:25:15;100317.84;;;18.33;69.06
58927;BME280;44712;52.530;9.760;2023-08-08T12:27:41;100323.88;;;18.22;67.96
58927;BME280;44712;52.530;9.760;2023-08-08T12:30:08;100323.97;;;18.20;65.73
58927;BME280;44712;52.530;9.760;2023-08-08T12:32:35;100321.31;;;18.19;66.69
58927;BME280;44712;52.530;9.760;2023-08-08T12:35:02;100324.69;;;18.24;68.09
58927;BME280;44712;52.530;9.760;2023-08-08T12:37:29;100357.41;;;17.89;68.43
58927;BME280;44712;52.530;9.760;2023-08-08T12:39:56;100345.91;;;17.63;73.92
58927;BME280;44712;52.530;9.760;2023-08-08T12:42:23;100346.78;;;17.45;75.67
58927;BME280;44712;52.530;9.760;2023-08-08T12:44:50;100351.06;;;17.31;78.08
58927;BME280;44712;52.530;9.760;2023-08-08T12:47:20;100345.16;;;17.40;77.56
58927;BME280;44712;52.530;9.760;2023-08-08T12:49:47;100344.50;;;17.73;79.08